createdAt,value
2022-09-12T00:02:23.889Z,13.25
2022-09-12T00:04:55.241Z,13.26
2022-09-12T00:07:26.324Z,13.30
2022-09-12T00:09:57.385Z,13.34
2022-09-12T00:12:28.344Z,13.38
2022-09-12T00:15:00.661Z,13.42
2022-09-12T00:17:31.491Z,13.46
2022-09-12T00:20:02.787Z,13.51
2022-09-12T00:22:33.960Z,13.55
2022-09-12T00:25:06.015Z,13.58
2022-09-12T00:27:36.964Z,13.59
2022-09-12T00:30:09.759Z,13.59
2022-09-12T00:32:40.620Z,13.57
2022-09-12T00:35:11.666Z,13.56
2022-09-12T00:37:42.717Z,13.56
2022-09-12T00:40:13.980Z,13.58
2022-09-12T00:42:44.752Z,13.60
2022-09-12T00:45:25.549Z,13.62
2022-09-12T00:47:58.392Z,13.64
2022-09-12T00:50:29.685Z,13.65
2022-09-12T00:53:05.445Z,13.66
2022-09-12T00:55:41.503Z,13.65
2022-09-12T00:58:15.969Z,13.66
2022-09-12T01:00:47.516Z,13.67
2022-09-12T01:03:20.809Z,13.67
2022-09-12T01:06:00.644Z,13.65
2022-09-12T01:08:34.158Z,13.61
2022-09-12T01:11:05.404Z,13.60
2022-09-12T01:13:37.568Z,13.58
2022-09-12T01:16:09.950Z,13.58
2022-09-12T01:18:52.562Z,13.58
2022-09-12T01:21:34.992Z,13.57
2022-09-12T01:24:28.966Z,13.57
2022-09-12T01:27:20.424Z,13.55
2022-09-12T01:30:30.194Z,13.55
2022-09-12T01:33:21.801Z,13.53
2022-09-12T01:36:04.640Z,13.53
2022-09-12T01:38:40.716Z,13.52
2022-09-12T01:41:23.682Z,13.51
2022-09-12T01:44:03.164Z,13.52
2022-09-12T01:46:39.441Z,13.51
2022-09-12T01:49:17.024Z,13.49
2022-09-12T01:51:57.022Z,13.51
2022-09-12T01:54:31.816Z,13.51
2022-09-12T01:57:09.878Z,13.51
2022-09-12T01:59:46.280Z,13.51
2022-09-12T02:02:21.584Z,13.51
2022-09-12T02:04:59.729Z,13.49
2022-09-12T02:07:37.364Z,13.48
2022-09-12T02:10:13.681Z,13.44
2022-09-12T02:12:47.551Z,13.47
2022-09-12T02:15:24.849Z,13.44
2022-09-12T02:17:59.296Z,13.42
2022-09-12T02:20:47.885Z,13.40
2022-09-12T02:23:23.706Z,13.38
2022-09-12T02:25:58.815Z,13.37
2022-09-12T02:28:35.736Z,13.35
2022-09-12T02:31:18.441Z,13.32
2022-09-12T02:33:59.105Z,13.31
2022-09-12T02:36:40.234Z,13.30
2022-09-12T02:39:11.612Z,13.28
2022-09-12T02:41:42.583Z,13.26
2022-09-12T02:44:11.996Z,13.22
2022-09-12T02:46:47.489Z,13.21
2022-09-12T02:49:18.629Z,13.19
2022-09-12T02:51:50.875Z,13.16
2022-09-12T02:54:22.210Z,13.15
2022-09-12T02:56:53.096Z,13.16
2022-09-12T02:59:26.443Z,13.15
2022-09-12T03:02:14.704Z,13.14
2022-09-12T03:05:03.236Z,13.10
2022-09-12T03:07:51.217Z,13.08
2022-09-12T03:10:29.713Z,13.07
2022-09-12T03:13:19.638Z,13.05
2022-09-12T03:16:04.240Z,13.05
2022-09-12T03:18:47.517Z,13.02
2022-09-12T03:21:27.435Z,13.02
2022-09-12T03:24:10.441Z,13.02
2022-09-12T03:26:45.766Z,13.01
2022-09-12T03:29:19.548Z,13.02
2022-09-12T03:31:58.335Z,13.03
2022-09-12T03:34:30.295Z,13.03
2022-09-12T03:37:01.302Z,13.04
2022-09-12T03:39:32.315Z,13.05
2022-09-12T03:42:03.284Z,13.04
2022-09-12T03:44:34.264Z,13.05
2022-09-12T03:47:10.560Z,13.06
2022-09-12T03:49:42.211Z,13.06
2022-09-12T03:52:13.181Z,13.05
2022-09-12T03:54:42.663Z,13.01
2022-09-12T03:57:11.916Z,12.96
2022-09-12T03:59:43.127Z,12.92
2022-09-12T04:02:14.170Z,12.88
2022-09-12T04:04:49.037Z,12.82
2022-09-12T04:07:19.876Z,12.78
2022-09-12T04:09:51.075Z,12.71
2022-09-12T04:12:21.926Z,12.65
2022-09-12T04:14:52.634Z,12.58
2022-09-12T04:17:23.615Z,12.53
2022-09-12T04:19:54.454Z,12.49
2022-09-12T04:22:25.746Z,12.46
2022-09-12T04:24:56.882Z,12.42
2022-09-12T04:27:28.400Z,12.36
2022-09-12T04:30:00.215Z,12.31
2022-09-12T04:32:32.285Z,12.26
2022-09-12T04:35:03.309Z,12.20
2022-09-12T04:37:34.282Z,12.10
2022-09-12T04:40:06.136Z,12.05
2022-09-12T04:42:36.901Z,12.03
2022-09-12T04:45:09.545Z,12.01
2022-09-12T04:47:40.297Z,11.97
2022-09-12T04:50:12.530Z,11.92
2022-09-12T04:52:43.628Z,11.90
2022-09-12T04:55:14.747Z,11.84
2022-09-12T04:57:45.509Z,11.80
2022-09-12T05:00:15.630Z,11.72
2022-09-12T05:02:46.526Z,11.66
2022-09-12T05:05:16.033Z,11.66
2022-09-12T05:07:45.279Z,11.64
2022-09-12T05:10:16.553Z,11.64
2022-09-12T05:12:48.400Z,11.68
2022-09-12T05:15:19.133Z,11.69
2022-09-12T05:17:50.112Z,11.71
2022-09-12T05:20:21.708Z,11.71
2022-09-12T05:22:52.964Z,11.73
2022-09-12T05:25:23.849Z,11.75
2022-09-12T05:27:56.938Z,11.78
2022-09-12T05:30:28.175Z,11.83
2022-09-12T05:32:59.380Z,11.88
2022-09-12T05:35:30.236Z,11.94
2022-09-12T05:38:01.023Z,11.99
2022-09-12T05:40:30.821Z,12.08
2022-09-12T05:43:02.219Z,12.14
2022-09-12T05:45:33.758Z,12.26
2022-09-12T05:48:05.470Z,12.37
2022-09-12T05:50:36.239Z,12.51
2022-09-12T05:53:08.733Z,12.63
2022-09-12T05:55:41.952Z,12.76
2022-09-12T05:58:13.274Z,12.88
2022-09-12T06:00:44.321Z,12.99
2022-09-12T06:03:15.304Z,13.08
2022-09-12T06:05:50.482Z,13.17
2022-09-12T06:08:21.669Z,13.26
2022-09-12T06:10:52.827Z,13.36
2022-09-12T06:13:23.802Z,13.44
2022-09-12T06:15:55.227Z,13.54
2022-09-12T06:18:26.275Z,13.63
2022-09-12T06:20:57.488Z,13.71
2022-09-12T06:23:27.980Z,13.81
2022-09-12T06:25:58.842Z,13.90
2022-09-12T06:28:29.925Z,14.02
2022-09-12T06:31:06.438Z,14.16
2022-09-12T06:33:36.705Z,14.30
2022-09-12T06:36:12.554Z,14.41
2022-09-12T06:38:44.435Z,14.58
2022-09-12T06:41:16.635Z,14.72
2022-09-12T06:43:47.487Z,14.87
2022-09-12T06:46:19.135Z,14.98
2022-09-12T06:48:51.075Z,15.05
2022-09-12T06:51:22.751Z,15.13
2022-09-12T06:53:55.935Z,15.22
2022-09-12T06:56:28.651Z,15.30
2022-09-12T06:59:00.548Z,15.35
2022-09-12T07:01:33.264Z,15.39
2022-09-12T07:04:05.793Z,15.43
2022-09-12T07:06:41.080Z,15.45
2022-09-12T07:09:16.419Z,15.46
2022-09-12T07:11:48.048Z,15.49
2022-09-12T07:14:19.153Z,15.53
2022-09-12T07:16:50.509Z,15.55
2022-09-12T07:19:21.314Z,15.56
2022-09-12T07:21:57.947Z,15.57
2022-09-12T07:24:30.271Z,15.56
2022-09-12T07:27:01.215Z,15.58
2022-09-12T07:29:36.986Z,15.61
2022-09-12T07:32:09.323Z,15.64
2022-09-12T07:34:40.443Z,15.65
2022-09-12T07:37:11.726Z,15.70
2022-09-12T07:39:43.010Z,15.76
2022-09-12T07:42:14.772Z,15.83
2022-09-12T07:44:46.285Z,15.90
2022-09-12T07:47:18.186Z,15.96
2022-09-12T07:49:49.066Z,16.04
2022-09-12T07:52:20.230Z,16.10
2022-09-12T07:54:51.425Z,16.11
2022-09-12T07:57:22.445Z,16.14
2022-09-12T07:59:53.576Z,16.19
2022-09-12T08:02:24.567Z,16.25
2022-09-12T08:04:55.340Z,16.34
2022-09-12T08:07:26.569Z,16.46
2022-09-12T08:09:57.603Z,16.56
2022-09-12T08:12:28.446Z,16.66
2022-09-12T08:15:00.121Z,16.73
2022-09-12T08:17:31.750Z,16.70
2022-09-12T08:20:03.006Z,16.67
2022-09-12T08:22:34.681Z,16.68
2022-09-12T08:25:08.946Z,16.70
2022-09-12T08:27:39.806Z,16.74
2022-09-12T08:30:12.973Z,16.76
2022-09-12T08:32:44.272Z,16.79
2022-09-12T08:35:15.696Z,16.85
2022-09-12T08:37:46.790Z,16.93
2022-09-12T08:40:19.928Z,17.02
2022-09-12T08:43:02.469Z,17.11
2022-09-12T08:45:38.093Z,17.18
2022-09-12T08:48:13.752Z,17.24
2022-09-12T08:50:49.762Z,17.26
2022-09-12T08:53:26.072Z,17.21
2022-09-12T08:56:00.576Z,17.21
2022-09-12T08:58:37.662Z,17.21
2022-09-12T09:01:15.441Z,17.25
2022-09-12T09:03:58.813Z,17.27
2022-09-12T09:06:54.008Z,17.32
2022-09-12T09:09:39.859Z,17.40
2022-09-12T09:12:20.031Z,17.53
2022-09-12T09:15:06.049Z,17.65
2022-09-12T09:17:42.794Z,17.81
2022-09-12T09:20:24.234Z,17.91
2022-09-12T09:22:59.887Z,17.76
2022-09-12T09:25:42.348Z,17.72
2022-09-12T09:28:21.008Z,17.79
2022-09-12T09:30:52.312Z,17.88
2022-09-12T09:33:27.561Z,17.95
2022-09-12T09:36:14.167Z,18.00
2022-09-12T09:38:51.246Z,18.08
2022-09-12T09:41:37.395Z,18.12
2022-09-12T09:46:44.234Z,18.12
2022-09-12T09:49:18.061Z,18.08
2022-09-12T09:51:49.463Z,18.06
2022-09-12T09:54:25.704Z,18.09
2022-09-12T09:56:57.364Z,18.13
2022-09-12T09:59:31.337Z,18.16
2022-09-12T10:02:05.408Z,18.18
2022-09-12T10:04:41.507Z,18.20
2022-09-12T10:07:21.811Z,18.25
2022-09-12T10:10:08.312Z,18.27
2022-09-12T10:12:39.904Z,18.33
2022-09-12T10:15:20.734Z,18.47
2022-09-12T10:17:53.664Z,18.59
2022-09-12T10:20:37.281Z,18.69
2022-09-12T10:23:30.691Z,18.81
2022-09-12T10:26:04.871Z,18.73
2022-09-12T10:28:40.001Z,18.64
2022-09-12T10:31:16.732Z,18.67
2022-09-12T10:33:52.817Z,18.69
2022-09-12T10:36:24.375Z,18.73
2022-09-12T10:38:58.286Z,18.78
2022-09-12T10:41:36.240Z,18.88
2022-09-12T10:44:17.002Z,19.00
2022-09-12T10:46:48.842Z,19.06
2022-09-12T10:49:28.693Z,19.08
2022-09-12T10:52:16.512Z,19.10
2022-09-12T10:54:47.949Z,19.01
2022-09-12T10:57:38.284Z,18.92
2022-09-12T11:00:17.100Z,18.84
2022-09-12T11:02:59.494Z,18.71
2022-09-12T11:05:42.974Z,18.65
2022-09-12T11:08:35.549Z,18.60
2022-09-12T11:11:14.923Z,18.54
2022-09-12T11:14:01.256Z,18.49
2022-09-12T11:16:42.103Z,18.41
2022-09-12T11:19:38.869Z,18.42
2022-09-12T11:22:28.649Z,18.50
2022-09-12T11:25:21.077Z,18.54
2022-09-12T11:28:17.356Z,18.67
2022-09-12T11:30:59.900Z,18.81
2022-09-12T11:33:39.700Z,18.88
2022-09-12T11:36:28.072Z,18.96
2022-09-12T11:39:11.592Z,19.07
2022-09-12T11:41:44.783Z,19.23
2022-09-12T11:44:21.959Z,19.43
2022-09-12T11:46:53.011Z,19.55
2022-09-12T11:49:35.753Z,19.63
2022-09-12T11:52:14.587Z,19.71
2022-09-12T11:54:53.497Z,19.82
2022-09-12T11:57:32.230Z,19.96
2022-09-12T12:00:07.965Z,20.02
2022-09-12T12:02:49.394Z,20.02
2022-09-12T12:05:25.820Z,19.95
2022-09-12T12:07:55.913Z,19.92
2022-09-12T12:10:33.082Z,19.93
2022-09-12T12:13:13.309Z,19.96
2022-09-12T12:15:49.581Z,19.84
2022-09-12T12:18:23.890Z,19.71
2022-09-12T12:20:56.830Z,19.58
2022-09-12T12:23:31.353Z,19.49
2022-09-12T12:26:04.544Z,19.46
2022-09-12T12:29:02.556Z,19.46
2022-09-12T12:31:53.753Z,19.44
2022-09-12T12:34:31.360Z,19.50
2022-09-12T12:37:40.984Z,19.57
2022-09-12T12:40:22.628Z,19.56
2022-09-12T12:43:31.603Z,19.48
2022-09-12T12:46:06.070Z,19.46
2022-09-12T12:49:11.645Z,19.41
2022-09-12T12:52:01.494Z,19.47
2022-09-12T12:54:50.914Z,19.55
2022-09-12T12:57:39.461Z,19.60
2022-09-12T13:00:28.245Z,19.64
2022-09-12T13:03:02.605Z,19.67
2022-09-12T13:05:42.663Z,19.66
2022-09-12T13:08:31.730Z,19.66
2022-09-12T13:11:08.772Z,19.66
2022-09-12T13:13:48.301Z,19.69
2022-09-12T13:16:42.329Z,19.66
2022-09-12T13:19:19.775Z,19.55
2022-09-12T13:22:01.098Z,19.51
2022-09-12T13:24:32.361Z,19.48
2022-09-12T13:27:04.590Z,19.44
2022-09-12T13:29:35.938Z,19.42
2022-09-12T13:32:07.471Z,19.48
2022-09-12T13:34:45.760Z,19.52
2022-09-12T13:37:33.543Z,19.53
2022-09-12T13:40:17.686Z,19.61
2022-09-12T13:42:50.942Z,19.70
2022-09-12T13:45:24.737Z,19.80
2022-09-12T13:47:58.997Z,19.88
2022-09-12T13:50:32.673Z,19.93
2022-09-12T13:53:07.080Z,20.03
2022-09-12T13:55:41.636Z,20.07
2022-09-12T13:58:21.581Z,19.96
2022-09-12T14:01:07.351Z,19.92
2022-09-12T14:04:01.781Z,19.93
2022-09-12T14:06:44.844Z,20.07
2022-09-12T14:09:32.152Z,20.24
2022-09-12T14:12:03.521Z,20.38
2022-09-12T14:14:37.589Z,20.46
2022-09-12T14:17:23.804Z,20.54
2022-09-12T14:19:55.065Z,20.61
2022-09-12T14:22:28.319Z,20.93
2022-09-12T14:25:02.077Z,21.82
2022-09-12T14:27:39.972Z,22.49
2022-09-12T14:30:24.290Z,22.88
2022-09-12T14:33:22.189Z,23.00
2022-09-12T14:36:08.361Z,22.50
2022-09-12T14:38:42.517Z,22.02
2022-09-12T14:41:15.408Z,21.70
2022-09-12T14:43:52.132Z,21.45
2022-09-12T14:46:28.599Z,21.23
2022-09-12T14:49:03.433Z,21.02
2022-09-12T14:51:39.286Z,20.87
2022-09-12T14:54:38.792Z,21.10
2022-09-12T14:57:36.794Z,21.47
2022-09-12T15:00:24.526Z,21.38
2022-09-12T15:02:55.975Z,21.19
2022-09-12T15:05:29.766Z,21.01
2022-09-12T15:08:04.357Z,21.01
2022-09-12T15:10:38.297Z,20.82
2022-09-12T15:13:21.463Z,20.63
2022-09-12T15:15:55.908Z,20.85
2022-09-12T15:18:28.957Z,21.00
2022-09-12T15:21:04.736Z,21.19
2022-09-12T15:23:40.260Z,21.26
2022-09-12T15:26:13.296Z,21.08
2022-09-12T15:28:44.534Z,21.09
2022-09-12T15:31:26.310Z,20.96
2022-09-12T15:33:59.148Z,20.88
2022-09-12T15:36:30.374Z,20.98
2022-09-12T15:39:01.175Z,21.09
2022-09-12T15:41:35.671Z,21.13
2022-09-12T15:44:09.363Z,21.21
2022-09-12T15:46:40.552Z,21.24
2022-09-12T15:49:12.010Z,21.21
2022-09-12T15:51:42.907Z,21.16
2022-09-12T15:54:16.284Z,21.13
2022-09-12T15:56:47.214Z,21.14
2022-09-12T15:59:18.319Z,21.13
2022-09-12T16:01:49.859Z,21.05
2022-09-12T16:04:25.049Z,21.00
2022-09-12T16:06:57.523Z,20.97
2022-09-12T16:09:28.901Z,20.87
2022-09-12T16:11:59.913Z,20.78
2022-09-12T16:14:31.035Z,20.63
2022-09-12T16:17:01.796Z,20.48
2022-09-12T16:19:33.403Z,20.31
2022-09-12T16:22:04.299Z,20.18
2022-09-12T16:24:35.530Z,20.05
2022-09-12T16:27:07.042Z,19.94
2022-09-12T16:29:38.447Z,19.83
2022-09-12T16:32:09.591Z,19.70
2022-09-12T16:34:40.678Z,19.58
2022-09-12T16:37:11.635Z,19.44
2022-09-12T16:39:43.067Z,19.27
2022-09-12T16:42:13.962Z,19.06
2022-09-12T16:44:44.982Z,18.86
2022-09-12T16:47:16.456Z,18.65
2022-09-12T16:49:47.440Z,18.49
2022-09-12T16:52:19.391Z,18.30
2022-09-12T16:54:51.024Z,18.12
2022-09-12T16:57:22.900Z,17.93
2022-09-12T16:59:54.471Z,17.72
2022-09-12T17:02:25.472Z,17.52
2022-09-12T17:05:02.588Z,17.31
2022-09-12T17:07:34.700Z,17.11
2022-09-12T17:10:06.515Z,16.91
2022-09-12T17:12:39.037Z,16.72
2022-09-12T17:15:14.966Z,16.50
2022-09-12T17:18:15.269Z,16.30
2022-09-12T17:20:46.495Z,16.10
2022-09-12T17:23:18.266Z,15.96
2022-09-12T17:25:57.020Z,15.81
2022-09-12T17:28:29.204Z,15.66
2022-09-12T17:31:01.793Z,15.54
2022-09-12T17:33:33.263Z,15.41
2022-09-12T17:36:06.168Z,15.26
2022-09-12T17:38:38.084Z,15.12
2022-09-12T17:41:11.754Z,15.00
2022-09-12T17:43:42.798Z,14.86
2022-09-12T17:46:14.099Z,14.71
2022-09-12T17:48:45.178Z,14.60
2022-09-12T17:51:18.146Z,14.50
2022-09-12T17:53:49.623Z,14.38
2022-09-12T17:56:29.876Z,14.27
2022-09-12T17:59:02.512Z,14.10
2022-09-12T18:01:51.971Z,13.96
2022-09-12T18:04:23.272Z,13.81
2022-09-12T18:06:55.226Z,13.72
2022-09-12T18:09:26.720Z,13.63
2022-09-12T18:11:57.799Z,13.55
2022-09-12T18:14:29.261Z,13.48
2022-09-12T18:17:00.311Z,13.41
2022-09-12T18:19:32.054Z,13.35
2022-09-12T18:22:03.581Z,13.30
2022-09-12T18:24:34.640Z,13.23
2022-09-12T18:27:06.745Z,13.18
2022-09-12T18:29:37.598Z,13.12
2022-09-12T18:32:06.948Z,13.07
2022-09-12T18:34:38.150Z,12.97
2022-09-12T18:37:08.342Z,12.89
2022-09-12T18:39:42.701Z,12.80
2022-09-12T18:42:13.747Z,12.72
2022-09-12T18:44:45.004Z,12.65
2022-09-12T18:47:16.738Z,12.58
2022-09-12T18:49:47.504Z,12.53
2022-09-12T18:52:19.147Z,12.48
2022-09-12T18:54:50.204Z,12.42
2022-09-12T18:57:19.509Z,12.37
2022-09-12T18:59:53.023Z,12.29
2022-09-12T19:02:28.432Z,12.25
2022-09-12T19:04:59.866Z,12.20
2022-09-12T19:07:31.691Z,12.15
2022-09-12T19:10:02.731Z,12.06
2022-09-12T19:12:33.844Z,11.99
2022-09-12T19:15:05.369Z,11.93
2022-09-12T19:17:36.455Z,11.88
2022-09-12T19:20:08.272Z,11.85
2022-09-12T19:22:39.576Z,11.84
2022-09-12T19:25:21.470Z,11.79
2022-09-12T19:27:52.414Z,11.73
2022-09-12T19:30:23.391Z,11.69
2022-09-12T19:32:54.677Z,11.70
2022-09-12T19:35:25.439Z,11.67
2022-09-12T19:37:56.785Z,11.63
2022-09-12T19:40:28.009Z,11.59
2022-09-12T19:42:58.942Z,11.55
2022-09-12T19:45:30.122Z,11.51
2022-09-12T19:48:01.261Z,11.45
2022-09-12T19:50:34.231Z,11.40
2022-09-12T19:53:05.186Z,11.35
2022-09-12T19:55:37.255Z,11.28
2022-09-12T19:58:08.638Z,11.23
2022-09-12T20:00:39.729Z,11.21
2022-09-12T20:03:10.491Z,11.18
2022-09-12T20:05:42.743Z,11.14
2022-09-12T20:08:14.422Z,11.09
2022-09-12T20:10:45.672Z,11.05
2022-09-12T20:13:16.539Z,11.01
2022-09-12T20:15:45.988Z,10.96
2022-09-12T20:18:17.519Z,10.90
2022-09-12T20:20:49.019Z,10.86
2022-09-12T20:23:19.893Z,10.81
2022-09-12T20:25:51.362Z,10.78
2022-09-12T20:28:22.291Z,10.76
2022-09-12T20:30:51.754Z,10.73
2022-09-12T20:33:21.238Z,10.68
2022-09-12T20:35:52.329Z,10.60
2022-09-12T20:38:23.271Z,10.58
2022-09-12T20:40:54.143Z,10.55
2022-09-12T20:43:23.543Z,10.50
2022-09-12T20:45:54.667Z,10.44
2022-09-12T20:48:25.719Z,10.40
2022-09-12T20:50:59.208Z,10.37
2022-09-12T20:53:34.848Z,10.33
2022-09-12T20:56:07.397Z,10.31
2022-09-12T20:58:43.034Z,10.29
2022-09-12T21:01:17.069Z,10.28
2022-09-12T21:03:48.249Z,10.26
2022-09-12T21:06:20.120Z,10.27
2022-09-12T21:08:51.559Z,10.27
2022-09-12T21:11:23.228Z,10.26
2022-09-12T21:13:54.365Z,10.28
2022-09-12T21:16:25.881Z,10.27
2022-09-12T21:18:58.577Z,10.27
2022-09-12T21:21:29.657Z,10.27
2022-09-12T21:24:03.722Z,10.27
2022-09-12T21:26:35.174Z,10.27
2022-09-12T21:29:06.352Z,10.29
2022-09-12T21:31:37.561Z,10.30
2022-09-12T21:34:08.558Z,10.32
2022-09-12T21:36:38.239Z,10.33
2022-09-12T21:39:09.126Z,10.32
2022-09-12T21:41:40.564Z,10.32
2022-09-12T21:44:11.623Z,10.33
2022-09-12T21:46:42.594Z,10.33
2022-09-12T21:49:13.589Z,10.33
2022-09-12T21:51:44.259Z,10.33
2022-09-12T21:54:15.367Z,10.32
2022-09-12T21:56:44.578Z,10.30
2022-09-12T21:59:15.503Z,10.26
2022-09-12T22:01:45.170Z,10.24
2022-09-12T22:04:16.327Z,10.20
2022-09-12T22:06:47.502Z,10.18
2022-09-12T22:09:18.779Z,10.15
2022-09-12T22:11:49.995Z,10.14
2022-09-12T22:14:21.342Z,10.13
2022-09-12T22:16:52.678Z,10.12
2022-09-12T22:19:23.760Z,10.11
2022-09-12T22:22:12.238Z,10.10
2022-09-12T22:24:43.294Z,10.08
2022-09-12T22:27:14.372Z,10.01
2022-09-12T22:29:46.266Z,9.98
2022-09-12T22:32:17.339Z,9.97
2022-09-12T22:34:46.841Z,9.97
2022-09-12T22:37:17.941Z,9.95
2022-09-12T22:39:48.943Z,9.96
2022-09-12T22:42:19.985Z,9.98
2022-09-12T22:44:49.512Z,10.00
2022-09-12T22:47:20.143Z,10.00
2022-09-12T22:49:50.791Z,10.00
2022-09-12T22:52:20.259Z,10.02
2022-09-12T22:54:51.466Z,10.01
2022-09-12T22:57:22.655Z,10.00
2022-09-12T22:59:53.633Z,9.99
2022-09-12T23:02:24.459Z,10.00
2022-09-12T23:04:55.443Z,10.02
2022-09-12T23:07:24.898Z,10.03
2022-09-12T23:09:55.633Z,10.01
2022-09-12T23:12:29.082Z,10.02
2022-09-12T23:15:02.615Z,10.04
2022-09-12T23:17:35.086Z,10.02
2022-09-12T23:20:07.265Z,10.01
2022-09-12T23:22:39.518Z,10.01
2022-09-12T23:25:11.866Z,10.00
2022-09-12T23:27:43.456Z,10.02
2022-09-12T23:30:21.664Z,10.04
2022-09-12T23:32:54.048Z,10.07
2022-09-12T23:35:23.418Z,10.10
2022-09-12T23:37:54.393Z,10.10
2022-09-12T23:40:25.362Z,10.13
2022-09-12T23:42:54.669Z,10.14
2022-09-12T23:45:25.730Z,10.16
2022-09-12T23:47:56.596Z,10.17
2022-09-12T23:50:27.511Z,10.18
2022-09-12T23:52:58.303Z,10.19
2022-09-12T23:55:29.741Z,10.19
2022-09-12T23:58:00.679Z,10.21
